PWSweather.com
Personal Weather Stations
Station Observations

East RockawayEast Rockaway, NY 11518

Lat: 40.63037, Lon: -73.67318699999998

Elevation: 14.1

Station Type: Ambient WS-2902

https://dashboard.ambientweather.net/devices/public/29e02c50ac46319a88a2fbe1b0953c9e

Latest ConditionsUpdated 2:36:00 AM EDT Friday, May 24, 2019
Currently Today's Max Today's Min Today's Average
Temperature 67.8°F19.9°C 68.2°F20.1°C 63.9°F17.7°C 66.8°F19.3°C
Dew Point 64.8°F18.2°C 65.1°F18.4°C 62.7°F17.1°C 64.3°F17.9°C
Winds 0.4 mph SE0.6 kmh SE 4.7 mph -7.6 kmh - - 2.0 mph 3.2 kmh
Wind Gusts 1.1 mph1.8 kmh 8.1 mph13.0 kmh - -
Humidity 90% 96% 90% 92%
Pressure 29.77 in1008.1 mb 29.80 in1009.1 mb 29.76 in1007.8 mb -
Hour Temp Dew Point Humidity Winds Wind Gusts Pressure Precip Precip Rate Daily Precip Total
02:36 AM 67.8°F19.9°C 64.8°F18.2°C 90% 0.4 mph SE0.6 kmh SE 1.1 mph1.8 kmh 29.77 in1008.1 mb 0.00 in0.0 mm 0.00 in0.0 mm 0.00 in0.0 mm
02:35 AM 67.8°F19.9°C 64.8°F18.2°C 90% 1.3 mph S2.1 kmh S 2.2 mph3.5 kmh 29.77 in1008.1 mb 0.00 in0.0 mm 0.00 in0.0 mm 0.00 in0.0 mm
02:34 AM 67.8°F19.9°C 64.8°F18.2°C 90% 1.6 mph SE2.6 kmh SE 2.2 mph3.5 kmh 29.77 in1008.1 mb 0.00 in0.0 mm 0.00 in0.0 mm 0.00 in0.0 mm
02:33 AM 67.8°F19.9°C 64.8°F18.2°C 90% 2.5 mph SW4.0 kmh SW 3.4 mph5.5 kmh 29.77 in1008.1 mb 0.00 in0.0 mm 0.00 in0.0 mm 0.00 in0.0 mm
02:32 AM 67.8°F19.9°C 64.8°F18.2°C 90% 1.3 mph SSE2.1 kmh SSE 2.2 mph3.5 kmh 29.77 in1008.1 mb 0.00 in0.0 mm 0.00 in0.0 mm 0.00 in0.0 mm
02:31 AM 67.8°F19.9°C 64.8°F18.2°C 90% 1.3 mph SSE2.1 kmh SSE 2.2 mph3.5 kmh 29.76 in1007.8 mb 0.00 in0.0 mm 0.00 in0.0 mm 0.00 in0.0 mm
02:30 AM 67.8°F19.9°C 65.1°F18.4°C 91% 2.5 mph SSW4.0 kmh SSW 3.4 mph5.5 kmh 29.77 in1008.1 mb 0.00 in0.0 mm 0.00 in0.0 mm 0.00 in0.0 mm
02:29 AM 67.8°F19.9°C 64.8°F18.2°C 90% 1.1 mph SSE1.8 kmh SSE 1.1 mph1.8 kmh 29.77 in1008.1 mb 0.00 in0.0 mm 0.00 in0.0 mm 0.00 in0.0 mm
02:28 AM 67.8°F19.9°C 64.8°F18.2°C 90% 0.9 mph SE1.4 kmh SE 1.1 mph1.8 kmh 29.77 in1008.1 mb 0.00 in0.0 mm 0.00 in0.0 mm 0.00 in0.0 mm
02:27 AM 67.8°F19.9°C 64.8°F18.2°C 90% 0.9 mph SW1.4 kmh SW 2.2 mph3.5 kmh 29.77 in1008.1 mb 0.00 in0.0 mm 0.00 in0.0 mm 0.00 in0.0 mm
02:26 AM 68.0°F20.0°C 65.0°F18.3°C 90% 0.7 mph SE1.1 kmh SE 1.1 mph1.8 kmh 29.76 in1007.8 mb 0.00 in0.0 mm 0.00 in0.0 mm 0.00 in0.0 mm
02:25 AM 68.0°F20.0°C 65.0°F18.3°C 90% 0.4 mph SE0.6 kmh SE 1.1 mph1.8 kmh 29.77 in1008.1 mb 0.00 in0.0 mm 0.00 in0.0 mm 0.00 in0.0 mm
02:24 AM 68.0°F20.0°C 65.0°F18.3°C 90% 1.1 mph SE1.8 kmh SE 1.1 mph1.8 kmh 29.77 in1008.1 mb 0.00 in0.0 mm 0.00 in0.0 mm 0.00 in0.0 mm
02:23 AM 68.0°F20.0°C 65.0°F18.3°C 90% 1.1 mph SSE1.8 kmh SSE 1.1 mph1.8 kmh 29.78 in1008.5 mb 0.00 in0.0 mm 0.00 in0.0 mm 0.00 in0.0 mm
02:22 AM 68.0°F20.0°C 65.0°F18.3°C 90% 1.8 mph SE2.9 kmh SE 2.2 mph3.5 kmh 29.78 in1008.5 mb 0.00 in0.0 mm 0.00 in0.0 mm 0.00 in0.0 mm
02:21 AM 68.0°F20.0°C 65.0°F18.3°C 90% 1.1 mph SE1.8 kmh SE 1.1 mph1.8 kmh 29.77 in1008.1 mb 0.00 in0.0 mm 0.00 in0.0 mm 0.00 in0.0 mm
02:20 AM 68.0°F20.0°C 65.0°F18.3°C 90% 1.3 mph S2.1 kmh S 2.2 mph3.5 kmh 29.77 in1008.1 mb 0.00 in0.0 mm 0.00 in0.0 mm 0.00 in0.0 mm
02:19 AM 68.0°F20.0°C 65.0°F18.3°C 90% 2.5 mph WSW4.0 kmh WSW 3.4 mph5.5 kmh 29.77 in1008.1 mb 0.00 in0.0 mm 0.00 in0.0 mm 0.00 in0.0 mm
02:18 AM 68.0°F20.0°C 65.0°F18.3°C 90% 1.1 mph SE1.8 kmh SE 2.2 mph3.5 kmh 29.78 in1008.5 mb 0.00 in0.0 mm 0.00 in0.0 mm 0.00 in0.0 mm
02:17 AM 68.0°F20.0°C 65.0°F18.3°C 90% 1.3 mph SSE2.1 kmh SSE 2.2 mph3.5 kmh 29.78 in1008.5 mb 0.00 in0.0 mm 0.00 in0.0 mm 0.00 in0.0 mm
02:16 AM 68.0°F20.0°C 65.0°F18.3°C 90% 1.8 mph SE2.9 kmh SE 2.2 mph3.5 kmh 29.78 in1008.5 mb 0.00 in0.0 mm 0.00 in0.0 mm 0.00 in0.0 mm
02:15 AM 68.0°F20.0°C 65.0°F18.3°C 90% 1.1 mph SSE1.8 kmh SSE 2.2 mph3.5 kmh 29.78 in1008.5 mb 0.00 in0.0 mm 0.00 in0.0 mm 0.00 in0.0 mm
02:14 AM 68.2°F20.1°C 65.1°F18.4°C 90% 1.1 mph SE1.8 kmh SE 1.1 mph1.8 kmh 29.78 in1008.5 mb 0.00 in0.0 mm 0.00 in0.0 mm 0.00 in0.0 mm
02:13 AM 68.2°F20.1°C 65.1°F18.4°C 90% 0.9 mph SE1.4 kmh SE 1.1 mph1.8 kmh 29.78 in1008.5 mb 0.00 in0.0 mm 0.00 in0.0 mm 0.00 in0.0 mm
02:12 AM 68.0°F20.0°C 65.0°F18.3°C 90% 1.3 mph SE2.1 kmh SE 2.2 mph3.5 kmh 29.77 in1008.1 mb 0.00 in0.0 mm 0.00 in0.0 mm 0.00 in0.0 mm
02:11 AM 68.0°F20.0°C 65.0°F18.3°C 90% 1.1 mph SE1.8 kmh SE 1.1 mph1.8 kmh 29.78 in1008.5 mb 0.00 in0.0 mm 0.00 in0.0 mm 0.00 in0.0 mm
02:10 AM 68.0°F20.0°C 65.0°F18.3°C 90% 2.0 mph WSW3.2 kmh WSW 2.2 mph3.5 kmh 29.78 in1008.5 mb 0.00 in0.0 mm 0.00 in0.0 mm 0.00 in0.0 mm
02:09 AM 68.0°F20.0°C 65.0°F18.3°C 90% 1.3 mph SSE2.1 kmh SSE 2.2 mph3.5 kmh 29.78 in1008.5 mb 0.00 in0.0 mm 0.00 in0.0 mm 0.00 in0.0 mm
02:08 AM 68.0°F20.0°C 65.0°F18.3°C 90% 0.7 mph SE1.1 kmh SE 1.1 mph1.8 kmh 29.78 in1008.5 mb 0.00 in0.0 mm 0.00 in0.0 mm 0.00 in0.0 mm
02:07 AM 68.2°F20.1°C 65.1°F18.4°C 90% 0.4 mph SE0.6 kmh SE 1.1 mph1.8 kmh 29.78 in1008.5 mb 0.00 in0.0 mm 0.00 in0.0 mm 0.00 in0.0 mm
02:06 AM 68.2°F20.1°C 65.1°F18.4°C 90% 1.1 mph ESE1.8 kmh ESE 1.1 mph1.8 kmh 29.78 in1008.5 mb 0.00 in0.0 mm 0.00 in0.0 mm 0.00 in0.0 mm
02:05 AM 68.2°F20.1°C 65.1°F18.4°C 90% 1.1 mph SE1.8 kmh SE 1.1 mph1.8 kmh 29.78 in1008.5 mb 0.00 in0.0 mm 0.00 in0.0 mm 0.00 in0.0 mm
02:04 AM 68.2°F20.1°C 65.1°F18.4°C 90% 0.9 mph SE1.4 kmh SE 1.1 mph1.8 kmh 29.78 in1008.5 mb 0.00 in0.0 mm 0.00 in0.0 mm 0.00 in0.0 mm
02:03 AM 68.2°F20.1°C 65.1°F18.4°C 90% 0.9 mph SE1.4 kmh SE 1.1 mph1.8 kmh 29.79 in1008.8 mb 0.00 in0.0 mm 0.00 in0.0 mm 0.00 in0.0 mm
02:02 AM 68.2°F20.1°C 65.1°F18.4°C 90% 0.7 mph SE1.1 kmh SE 1.1 mph1.8 kmh 29.78 in1008.5 mb 0.00 in0.0 mm 0.00 in0.0 mm 0.00 in0.0 mm
02:01 AM 68.2°F20.1°C 65.1°F18.4°C 90% 2.0 mph SW3.2 kmh SW 2.2 mph3.5 kmh 29.78 in1008.5 mb 0.00 in0.0 mm 0.00 in0.0 mm 0.00 in0.0 mm
02:00 AM 68.2°F20.1°C 65.1°F18.4°C 90% 1.8 mph SSE2.9 kmh SSE 2.2 mph3.5 kmh 29.78 in1008.5 mb 0.00 in0.0 mm 0.00 in0.0 mm 0.00 in0.0 mm
01:59 AM 68.0°F20.0°C 65.0°F18.3°C 90% 0.2 mph SE0.3 kmh SE 1.1 mph1.8 kmh 29.78 in1008.5 mb 0.00 in0.0 mm 0.00 in0.0 mm 0.00 in0.0 mm
01:58 AM 68.0°F20.0°C 65.0°F18.3°C 90% 1.8 mph SE2.9 kmh SE 2.2 mph3.5 kmh 29.78 in1008.5 mb 0.00 in0.0 mm 0.00 in0.0 mm 0.00 in0.0 mm
01:57 AM 67.8°F19.9°C 64.8°F18.2°C 90% 1.8 mph ESE2.9 kmh ESE 2.2 mph3.5 kmh 29.78 in1008.5 mb 0.00 in0.0 mm 0.00 in0.0 mm 0.00 in0.0 mm
01:56 AM 67.8°F19.9°C 64.8°F18.2°C 90% 3.4 mph NW5.5 kmh NW 4.5 mph7.2 kmh 29.78 in1008.5 mb 0.00 in0.0 mm 0.00 in0.0 mm 0.00 in0.0 mm
01:55 AM 67.6°F19.8°C 64.9°F18.3°C 91% 1.8 mph S2.9 kmh S 2.2 mph3.5 kmh 29.78 in1008.5 mb 0.00 in0.0 mm 0.00 in0.0 mm 0.00 in0.0 mm
01:54 AM 67.6°F19.8°C 64.9°F18.3°C 91% 1.8 mph SE2.9 kmh SE 2.2 mph3.5 kmh 29.79 in1008.8 mb 0.00 in0.0 mm 0.00 in0.0 mm 0.00 in0.0 mm
01:53 AM 67.5°F19.7°C 64.8°F18.2°C 91% 2.2 mph NW3.5 kmh NW 2.2 mph3.5 kmh 29.78 in1008.5 mb 0.00 in0.0 mm 0.00 in0.0 mm 0.00 in0.0 mm
01:52 AM 67.5°F19.7°C 64.8°F18.2°C 91% 2.2 mph WSW3.5 kmh WSW 3.4 mph5.5 kmh 29.78 in1008.5 mb 0.00 in0.0 mm 0.00 in0.0 mm 0.00 in0.0 mm
01:51 AM 67.3°F19.6°C 64.6°F18.1°C 91% 1.6 mph SE2.6 kmh SE 2.2 mph3.5 kmh 29.78 in1008.5 mb 0.00 in0.0 mm 0.00 in0.0 mm 0.00 in0.0 mm
01:50 AM 67.3°F19.6°C 64.6°F18.1°C 91% 1.8 mph SE2.9 kmh SE 3.4 mph5.5 kmh 29.78 in1008.5 mb 0.00 in0.0 mm 0.00 in0.0 mm 0.00 in0.0 mm
01:49 AM 67.3°F19.6°C 64.6°F18.1°C 91% 1.8 mph S2.9 kmh S 2.2 mph3.5 kmh 29.78 in1008.5 mb 0.00 in0.0 mm 0.00 in0.0 mm 0.00 in0.0 mm
01:48 AM 67.1°F19.5°C 64.4°F18.0°C 91% 2.2 mph SSW3.5 kmh SSW 2.2 mph3.5 kmh 29.78 in1008.5 mb 0.00 in0.0 mm 0.00 in0.0 mm 0.00 in0.0 mm
01:47 AM 67.1°F19.5°C 64.4°F18.0°C 91% 2.9 mph WNW4.7 kmh WNW 4.5 mph7.2 kmh 29.78 in1008.5 mb 0.00 in0.0 mm 0.00 in0.0 mm 0.00 in0.0 mm
01:46 AM 67.1°F19.5°C 64.4°F18.0°C 91% 1.6 mph SSE2.6 kmh SSE 2.2 mph3.5 kmh 29.78 in1008.5 mb 0.00 in0.0 mm 0.00 in0.0 mm 0.00 in0.0 mm
01:45 AM 67.1°F19.5°C 64.4°F18.0°C 91% 2.0 mph S3.2 kmh S 2.2 mph3.5 kmh 29.79 in1008.8 mb 0.00 in0.0 mm 0.00 in0.0 mm 0.00 in0.0 mm
01:44 AM 66.9°F19.4°C 64.2°F17.9°C 91% 1.8 mph S2.9 kmh S 2.2 mph3.5 kmh 29.78 in1008.5 mb 0.00 in0.0 mm 0.00 in0.0 mm 0.00 in0.0 mm
01:43 AM 66.9°F19.4°C 64.2°F17.9°C 91% 1.6 mph SE2.6 kmh SE 2.2 mph3.5 kmh 29.79 in1008.8 mb 0.00 in0.0 mm 0.00 in0.0 mm 0.00 in0.0 mm
01:42 AM 66.9°F19.4°C 64.2°F17.9°C 91% 1.3 mph WSW2.1 kmh WSW 2.2 mph3.5 kmh 29.79 in1008.8 mb 0.00 in0.0 mm 0.00 in0.0 mm 0.00 in0.0 mm
01:41 AM 66.9°F19.4°C 64.2°F17.9°C 91% 0.7 mph SE1.1 kmh SE 1.1 mph1.8 kmh 29.78 in1008.5 mb 0.00 in0.0 mm 0.00 in0.0 mm 0.00 in0.0 mm
01:40 AM 66.9°F19.4°C 64.2°F17.9°C 91% 1.3 mph S2.1 kmh S 2.2 mph3.5 kmh 29.78 in1008.5 mb 0.00 in0.0 mm 0.00 in0.0 mm 0.00 in0.0 mm
01:39 AM 66.9°F19.4°C 64.2°F17.9°C 91% 0.9 mph SE1.4 kmh SE 1.1 mph1.8 kmh 29.79 in1008.8 mb 0.00 in0.0 mm 0.00 in0.0 mm 0.00 in0.0 mm
01:38 AM 66.9°F19.4°C 64.2°F17.9°C 91% 1.3 mph SE2.1 kmh SE 2.2 mph3.5 kmh 29.79 in1008.8 mb 0.00 in0.0 mm 0.00 in0.0 mm 0.00 in0.0 mm
01:37 AM 66.9°F19.4°C 64.2°F17.9°C 91% 0.7 mph SSW1.1 kmh SSW 1.1 mph1.8 kmh 29.79 in1008.8 mb 0.00 in0.0 mm 0.00 in0.0 mm 0.00 in0.0 mm
01:36 AM 66.9°F19.4°C 64.2°F17.9°C 91% 1.3 mph SE2.1 kmh SE 2.2 mph3.5 kmh 29.79 in1008.8 mb 0.00 in0.0 mm 0.00 in0.0 mm 0.00 in0.0 mm
01:35 AM 67.1°F19.5°C 64.4°F18.0°C 91% 1.1 mph SE1.8 kmh SE 1.1 mph1.8 kmh 29.78 in1008.5 mb 0.00 in0.0 mm 0.00 in0.0 mm 0.00 in0.0 mm
01:34 AM 67.1°F19.5°C 64.4°F18.0°C 91% 1.3 mph SW2.1 kmh SW 2.2 mph3.5 kmh 29.79 in1008.8 mb 0.00 in0.0 mm 0.00 in0.0 mm 0.00 in0.0 mm
01:33 AM 67.1°F19.5°C 64.4°F18.0°C 91% 0.9 mph SE1.4 kmh SE 1.1 mph1.8 kmh 29.79 in1008.8 mb 0.00 in0.0 mm 0.00 in0.0 mm 0.00 in0.0 mm
01:32 AM 67.1°F19.5°C 64.1°F17.8°C 90% 1.3 mph SE2.1 kmh SE 2.2 mph3.5 kmh 29.78 in1008.5 mb 0.00 in0.0 mm 0.00 in0.0 mm 0.00 in0.0 mm
01:31 AM 67.1°F19.5°C 64.1°F17.8°C 90% 2.2 mph SW3.5 kmh SW 2.2 mph3.5 kmh 29.78 in1008.5 mb 0.00 in0.0 mm 0.00 in0.0 mm 0.00 in0.0 mm
01:30 AM 67.1°F19.5°C 64.1°F17.8°C 90% 1.3 mph SE2.1 kmh SE 2.2 mph3.5 kmh 29.78 in1008.5 mb 0.00 in0.0 mm 0.00 in0.0 mm 0.00 in0.0 mm
01:29 AM 67.1°F19.5°C 64.1°F17.8°C 90% 2.2 mph WSW3.5 kmh WSW 3.4 mph5.5 kmh 29.78 in1008.5 mb 0.00 in0.0 mm 0.00 in0.0 mm 0.00 in0.0 mm
01:28 AM 67.1°F19.5°C 64.1°F17.8°C 90% 1.8 mph SSW2.9 kmh SSW 2.2 mph3.5 kmh 29.78 in1008.5 mb 0.00 in0.0 mm 0.00 in0.0 mm 0.00 in0.0 mm
01:27 AM 67.3°F19.6°C 64.3°F17.9°C 90% 1.6 mph SSW2.6 kmh SSW 2.2 mph3.5 kmh 29.78 in1008.5 mb 0.00 in0.0 mm 0.00 in0.0 mm 0.00 in0.0 mm
01:26 AM 67.3°F19.6°C 64.3°F17.9°C 90% 1.6 mph S2.6 kmh S 2.2 mph3.5 kmh 29.78 in1008.5 mb 0.00 in0.0 mm 0.00 in0.0 mm 0.00 in0.0 mm
01:25 AM 67.3°F19.6°C 64.3°F17.9°C 90% 3.4 mph S5.5 kmh S 4.5 mph7.2 kmh 29.79 in1008.8 mb 0.00 in0.0 mm 0.00 in0.0 mm 0.00 in0.0 mm
01:24 AM 67.5°F19.7°C 64.5°F18.1°C 90% 2.5 mph E4.0 kmh E 4.5 mph7.2 kmh 29.78 in1008.5 mb 0.00 in0.0 mm 0.00 in0.0 mm 0.00 in0.0 mm
01:23 AM 67.5°F19.7°C 64.5°F18.1°C 90% 3.4 mph SW5.5 kmh SW 4.5 mph7.2 kmh 29.78 in1008.5 mb 0.00 in0.0 mm 0.00 in0.0 mm 0.00 in0.0 mm
01:22 AM 67.5°F19.7°C 64.5°F18.1°C 90% 3.8 mph ESE6.1 kmh ESE 4.5 mph7.2 kmh 29.78 in1008.5 mb 0.00 in0.0 mm 0.00 in0.0 mm 0.00 in0.0 mm
01:21 AM 67.5°F19.7°C 64.5°F18.1°C 90% 3.8 mph SE6.1 kmh SE 6.9 mph11.1 kmh 29.78 in1008.5 mb 0.00 in0.0 mm 0.00 in0.0 mm 0.00 in0.0 mm
01:20 AM 67.5°F19.7°C 64.5°F18.1°C 90% 3.1 mph SW5.0 kmh SW 4.5 mph7.2 kmh 29.78 in1008.5 mb 0.00 in0.0 mm 0.00 in0.0 mm 0.00 in0.0 mm
01:19 AM 67.5°F19.7°C 64.5°F18.1°C 90% 4.0 mph W6.4 kmh W 5.8 mph9.3 kmh 29.78 in1008.5 mb 0.00 in0.0 mm 0.00 in0.0 mm 0.00 in0.0 mm
01:18 AM 67.5°F19.7°C 64.5°F18.1°C 90% 2.0 mph NW3.2 kmh NW 2.2 mph3.5 kmh 29.78 in1008.5 mb 0.00 in0.0 mm 0.00 in0.0 mm 0.00 in0.0 mm
01:17 AM 67.5°F19.7°C 64.5°F18.1°C 90% 2.9 mph S4.7 kmh S 4.5 mph7.2 kmh 29.78 in1008.5 mb 0.00 in0.0 mm 0.00 in0.0 mm 0.00 in0.0 mm
01:16 AM 67.5°F19.7°C 64.5°F18.1°C 90% 2.2 mph SSE3.5 kmh SSE 3.4 mph5.5 kmh 29.78 in1008.5 mb 0.00 in0.0 mm 0.00 in0.0 mm 0.00 in0.0 mm
01:15 AM 67.5°F19.7°C 64.5°F18.1°C 90% 4.0 mph W6.4 kmh W 4.5 mph7.2 kmh 29.79 in1008.8 mb 0.00 in0.0 mm 0.00 in0.0 mm 0.00 in0.0 mm
01:14 AM 67.5°F19.7°C 64.5°F18.1°C 90% 4.0 mph E6.4 kmh E 5.8 mph9.3 kmh 29.78 in1008.5 mb 0.00 in0.0 mm 0.00 in0.0 mm 0.00 in0.0 mm
01:13 AM 67.5°F19.7°C 64.5°F18.1°C 90% 2.9 mph SSW4.7 kmh SSW 3.4 mph5.5 kmh 29.79 in1008.8 mb 0.00 in0.0 mm 0.00 in0.0 mm 0.00 in0.0 mm
01:12 AM 67.5°F19.7°C 64.5°F18.1°C 90% 2.9 mph SSE4.7 kmh SSE 4.5 mph7.2 kmh 29.78 in1008.5 mb 0.00 in0.0 mm 0.00 in0.0 mm 0.00 in0.0 mm
01:11 AM 67.5°F19.7°C 64.5°F18.1°C 90% 3.1 mph E5.0 kmh E 4.5 mph7.2 kmh 29.78 in1008.5 mb 0.00 in0.0 mm 0.00 in0.0 mm 0.00 in0.0 mm
01:10 AM 67.5°F19.7°C 64.5°F18.1°C 90% 2.9 mph SW4.7 kmh SW 3.4 mph5.5 kmh 29.78 in1008.5 mb 0.00 in0.0 mm 0.00 in0.0 mm 0.00 in0.0 mm
01:09 AM 67.3°F19.6°C 64.3°F17.9°C 90% 4.0 mph WSW6.4 kmh WSW 4.5 mph7.2 kmh 29.78 in1008.5 mb 0.00 in0.0 mm 0.00 in0.0 mm 0.00 in0.0 mm
01:08 AM 67.3°F19.6°C 64.3°F17.9°C 90% 4.7 mph SW7.6 kmh SW 5.8 mph9.3 kmh 29.78 in1008.5 mb 0.00 in0.0 mm 0.00 in0.0 mm 0.00 in0.0 mm
01:07 AM 67.3°F19.6°C 64.3°F17.9°C 90% 2.5 mph S4.0 kmh S 3.4 mph5.5 kmh 29.78 in1008.5 mb 0.00 in0.0 mm 0.00 in0.0 mm 0.00 in0.0 mm
01:06 AM 67.3°F19.6°C 64.3°F17.9°C 90% 2.9 mph W4.7 kmh W 3.4 mph5.5 kmh 29.78 in1008.5 mb 0.00 in0.0 mm 0.00 in0.0 mm 0.00 in0.0 mm
01:05 AM 67.3°F19.6°C 64.3°F17.9°C 90% 3.6 mph WNW5.8 kmh WNW 5.8 mph9.3 kmh 29.78 in1008.5 mb 0.00 in0.0 mm 0.00 in0.0 mm 0.00 in0.0 mm
01:04 AM 67.3°F19.6°C 64.3°F17.9°C 90% 1.8 mph SSW2.9 kmh SSW 2.2 mph3.5 kmh 29.78 in1008.5 mb 0.00 in0.0 mm 0.00 in0.0 mm 0.00 in0.0 mm
01:03 AM 67.3°F19.6°C 64.3°F17.9°C 90% 4.5 mph ESE7.2 kmh ESE 6.9 mph11.1 kmh 29.78 in1008.5 mb 0.00 in0.0 mm 0.00 in0.0 mm 0.00 in0.0 mm
01:02 AM 67.3°F19.6°C 64.3°F17.9°C 90% 2.5 mph SSE4.0 kmh SSE 3.4 mph5.5 kmh 29.79 in1008.8 mb 0.00 in0.0 mm 0.00 in0.0 mm 0.00 in0.0 mm
01:01 AM 67.3°F19.6°C 64.3°F17.9°C 90% 4.3 mph WNW6.9 kmh WNW 5.8 mph9.3 kmh 29.78 in1008.5 mb 0.00 in0.0 mm 0.00 in0.0 mm 0.00 in0.0 mm
01:00 AM 67.3°F19.6°C 64.3°F17.9°C 90% 3.4 mph WNW5.5 kmh WNW 4.5 mph7.2 kmh 29.78 in1008.5 mb 0.00 in0.0 mm 0.00 in0.0 mm 0.00 in0.0 mm
12:59 AM 67.3°F19.6°C 64.3°F17.9°C 90% 2.5 mph SW4.0 kmh SW 4.5 mph7.2 kmh 29.79 in1008.8 mb 0.00 in0.0 mm 0.00 in0.0 mm 0.00 in0.0 mm
12:58 AM 67.1°F19.5°C 64.4°F18.0°C 91% 3.6 mph NW5.8 kmh NW 4.5 mph7.2 kmh 29.78 in1008.5 mb 0.00 in0.0 mm 0.00 in0.0 mm 0.00 in0.0 mm
12:57 AM 67.1°F19.5°C 64.4°F18.0°C 91% 4.7 mph W7.6 kmh W 8.1 mph13.0 kmh 29.78 in1008.5 mb 0.00 in0.0 mm 0.00 in0.0 mm 0.00 in0.0 mm
12:56 AM 67.1°F19.5°C 64.4°F18.0°C 91% 1.1 mph SE1.8 kmh SE 1.1 mph1.8 kmh 29.78 in1008.5 mb 0.00 in0.0 mm 0.00 in0.0 mm 0.00 in0.0 mm
12:55 AM 67.1°F19.5°C 64.4°F18.0°C 91% 2.0 mph W3.2 kmh W 3.4 mph5.5 kmh 29.79 in1008.8 mb 0.00 in0.0 mm 0.00 in0.0 mm 0.00 in0.0 mm
12:54 AM 67.1°F19.5°C 64.4°F18.0°C 91% 2.7 mph W4.3 kmh W 4.5 mph7.2 kmh 29.78 in1008.5 mb 0.00 in0.0 mm 0.00 in0.0 mm 0.00 in0.0 mm
12:53 AM 67.1°F19.5°C 64.4°F18.0°C 91% 2.9 mph NW4.7 kmh NW 4.5 mph7.2 kmh 29.78 in1008.5 mb 0.00 in0.0 mm 0.00 in0.0 mm 0.00 in0.0 mm
12:52 AM 67.1°F19.5°C 64.4°F18.0°C 91% 1.8 mph SSE2.9 kmh SSE 2.2 mph3.5 kmh 29.78 in1008.5 mb 0.00 in0.0 mm 0.00 in0.0 mm 0.00 in0.0 mm
12:51 AM 66.9°F19.4°C 64.2°F17.9°C 91% 3.4 mph WSW5.5 kmh WSW 4.5 mph7.2 kmh 29.78 in1008.5 mb 0.00 in0.0 mm 0.00 in0.0 mm 0.00 in0.0 mm
12:50 AM 66.9°F19.4°C 64.2°F17.9°C 91% 3.4 mph S5.5 kmh S 4.5 mph7.2 kmh 29.78 in1008.5 mb 0.00 in0.0 mm 0.00 in0.0 mm 0.00 in0.0 mm
12:49 AM 66.7°F19.3°C 64.3°F17.9°C 92% 4.5 mph SE7.2 kmh SE 5.8 mph9.3 kmh 29.78 in1008.5 mb 0.00 in0.0 mm 0.00 in0.0 mm 0.00 in0.0 mm
12:48 AM 66.7°F19.3°C 64.3°F17.9°C 92% 1.8 mph SW2.9 kmh SW 2.2 mph3.5 kmh 29.77 in1008.1 mb 0.00 in0.0 mm 0.00 in0.0 mm 0.00 in0.0 mm
12:47 AM 66.6°F19.2°C 64.2°F17.9°C 92% 3.8 mph WSW6.1 kmh WSW 4.5 mph7.2 kmh 29.78 in1008.5 mb 0.00 in0.0 mm 0.00 in0.0 mm 0.00 in0.0 mm
12:46 AM 66.6°F19.2°C 64.2°F17.9°C 92% 3.1 mph S5.0 kmh S 4.5 mph7.2 kmh 29.78 in1008.5 mb 0.00 in0.0 mm 0.00 in0.0 mm 0.00 in0.0 mm
12:45 AM 66.4°F19.1°C 64.0°F17.8°C 92% 2.2 mph ESE3.5 kmh ESE 3.4 mph5.5 kmh 29.78 in1008.5 mb 0.00 in0.0 mm 0.00 in0.0 mm 0.00 in0.0 mm
12:44 AM 66.4°F19.1°C 64.0°F17.8°C 92% 2.5 mph S4.0 kmh S 3.4 mph5.5 kmh 29.78 in1008.5 mb 0.00 in0.0 mm 0.00 in0.0 mm 0.00 in0.0 mm
12:43 AM 66.4°F19.1°C 64.0°F17.8°C 92% 2.2 mph S3.5 kmh S 3.4 mph5.5 kmh 29.78 in1008.5 mb 0.00 in0.0 mm 0.00 in0.0 mm 0.00 in0.0 mm
12:42 AM 66.4°F19.1°C 64.3°F17.9°C 93% 2.7 mph SE4.3 kmh SE 4.5 mph7.2 kmh 29.78 in1008.5 mb 0.00 in0.0 mm 0.00 in0.0 mm 0.00 in0.0 mm
12:41 AM 66.2°F19.0°C 64.1°F17.8°C 93% 4.0 mph W6.4 kmh W 4.5 mph7.2 kmh 29.78 in1008.5 mb 0.00 in0.0 mm 0.00 in0.0 mm 0.00 in0.0 mm
12:40 AM 66.2°F19.0°C 64.1°F17.8°C 93% 2.2 mph SSE3.5 kmh SSE 3.4 mph5.5 kmh 29.78 in1008.5 mb 0.00 in0.0 mm 0.00 in0.0 mm 0.00 in0.0 mm
12:39 AM 66.0°F18.9°C 63.9°F17.7°C 93% 2.5 mph WSW4.0 kmh WSW 3.4 mph5.5 kmh 29.78 in1008.5 mb 0.00 in0.0 mm 0.00 in0.0 mm 0.00 in0.0 mm
12:38 AM 66.0°F18.9°C 63.9°F17.7°C 93% 2.9 mph NNW4.7 kmh NNW 3.4 mph5.5 kmh 29.79 in1008.8 mb 0.00 in0.0 mm 0.00 in0.0 mm 0.00 in0.0 mm
12:37 AM 66.0°F18.9°C 63.9°F17.7°C 93% 1.8 mph SSW2.9 kmh SSW 2.2 mph3.5 kmh 29.79 in1008.8 mb 0.00 in0.0 mm 0.00 in0.0 mm 0.00 in0.0 mm
12:36 AM 66.0°F18.9°C 64.2°F17.9°C 94% 2.9 mph ESE4.7 kmh ESE 3.4 mph5.5 kmh 29.79 in1008.8 mb 0.00 in0.0 mm 0.00 in0.0 mm 0.00 in0.0 mm
12:35 AM 65.8°F18.8°C 64.0°F17.8°C 94% 2.9 mph W4.7 kmh W 4.5 mph7.2 kmh 29.78 in1008.5 mb 0.00 in0.0 mm 0.00 in0.0 mm 0.00 in0.0 mm
12:34 AM 65.8°F18.8°C 64.0°F17.8°C 94% 2.0 mph SW3.2 kmh SW 2.2 mph3.5 kmh 29.79 in1008.8 mb 0.00 in0.0 mm 0.00 in0.0 mm 0.00 in0.0 mm
12:33 AM 65.8°F18.8°C 64.0°F17.8°C 94% 1.8 mph SSE2.9 kmh SSE 2.2 mph3.5 kmh 29.79 in1008.8 mb 0.00 in0.0 mm 0.00 in0.0 mm 0.00 in0.0 mm
12:32 AM 65.8°F18.8°C 64.0°F17.8°C 94% 2.0 mph ESE3.2 kmh ESE 2.2 mph3.5 kmh 29.79 in1008.8 mb 0.00 in0.0 mm 0.00 in0.0 mm 0.00 in0.0 mm
12:31 AM 65.8°F18.8°C 64.0°F17.8°C 94% 2.7 mph WSW4.3 kmh WSW 3.4 mph5.5 kmh 29.79 in1008.8 mb 0.00 in0.0 mm 0.00 in0.0 mm 0.00 in0.0 mm
12:30 AM 65.7°F18.7°C 63.9°F17.7°C 94% 2.2 mph SE3.5 kmh SE 2.2 mph3.5 kmh 29.78 in1008.5 mb 0.00 in0.0 mm 0.00 in0.0 mm 0.00 in0.0 mm
12:29 AM 65.7°F18.7°C 63.9°F17.7°C 94% 2.5 mph SSE4.0 kmh SSE 3.4 mph5.5 kmh 29.79 in1008.8 mb 0.00 in0.0 mm 0.00 in0.0 mm 0.00 in0.0 mm
12:28 AM 65.7°F18.7°C 64.2°F17.9°C 95% 2.0 mph SSE3.2 kmh SSE 2.2 mph3.5 kmh 29.78 in1008.5 mb 0.00 in0.0 mm 0.00 in0.0 mm 0.00 in0.0 mm
12:27 AM 65.7°F18.7°C 64.2°F17.9°C 95% 1.6 mph WSW2.6 kmh WSW 3.4 mph5.5 kmh 29.79 in1008.8 mb 0.00 in0.0 mm 0.00 in0.0 mm 0.00 in0.0 mm
12:26 AM 65.7°F18.7°C 64.2°F17.9°C 95% 1.3 mph ESE2.1 kmh ESE 2.2 mph3.5 kmh 29.79 in1008.8 mb 0.00 in0.0 mm 0.00 in0.0 mm 0.00 in0.0 mm
12:25 AM 65.5°F18.6°C 64.0°F17.8°C 95% 1.8 mph WSW2.9 kmh WSW 2.2 mph3.5 kmh 29.78 in1008.5 mb 0.00 in0.0 mm 0.00 in0.0 mm 0.00 in0.0 mm
12:24 AM 65.3°F18.5°C 63.8°F17.7°C 95% 1.6 mph S2.6 kmh S 2.2 mph3.5 kmh 29.78 in1008.5 mb 0.00 in0.0 mm 0.00 in0.0 mm 0.00 in0.0 mm
12:23 AM 65.3°F18.5°C 63.8°F17.7°C 95% 2.5 mph SSE4.0 kmh SSE 3.4 mph5.5 kmh 29.79 in1008.8 mb 0.00 in0.0 mm 0.00 in0.0 mm 0.00 in0.0 mm
12:22 AM 65.3°F18.5°C 63.8°F17.7°C 95% 1.1 mph SE1.8 kmh SE 1.1 mph1.8 kmh 29.78 in1008.5 mb 0.00 in0.0 mm 0.00 in0.0 mm 0.00 in0.0 mm
12:21 AM 65.1°F18.4°C 63.6°F17.6°C 95% 1.8 mph SW2.9 kmh SW 2.2 mph3.5 kmh 29.79 in1008.8 mb 0.00 in0.0 mm 0.00 in0.0 mm 0.00 in0.0 mm
12:20 AM 65.1°F18.4°C 63.6°F17.6°C 95% 1.1 mph SE1.8 kmh SE 2.2 mph3.5 kmh 29.78 in1008.5 mb 0.00 in0.0 mm 0.00 in0.0 mm 0.00 in0.0 mm
12:19 AM 65.1°F18.4°C 63.6°F17.6°C 95% 1.3 mph S2.1 kmh S 2.2 mph3.5 kmh 29.79 in1008.8 mb 0.00 in0.0 mm 0.00 in0.0 mm 0.00 in0.0 mm
12:18 AM 65.1°F18.4°C 63.9°F17.7°C 96% 0.9 mph SSE1.4 kmh SSE 1.1 mph1.8 kmh 29.79 in1008.8 mb 0.00 in0.0 mm 0.00 in0.0 mm 0.00 in0.0 mm
12:17 AM 64.9°F18.3°C 63.7°F17.6°C 96% 1.8 mph S2.9 kmh S 2.2 mph3.5 kmh 29.79 in1008.8 mb 0.00 in0.0 mm 0.00 in0.0 mm 0.00 in0.0 mm
12:16 AM 64.9°F18.3°C 63.7°F17.6°C 96% 2.2 mph S3.5 kmh S 3.4 mph5.5 kmh 29.79 in1008.8 mb 0.00 in0.0 mm 0.00 in0.0 mm 0.00 in0.0 mm
12:15 AM 64.9°F18.3°C 63.7°F17.6°C 96% 2.2 mph S3.5 kmh S 2.2 mph3.5 kmh 29.79 in1008.8 mb 0.00 in0.0 mm 0.00 in0.0 mm 0.00 in0.0 mm
12:14 AM 64.8°F18.2°C 63.6°F17.6°C 96% 1.3 mph SE2.1 kmh SE 2.2 mph3.5 kmh 29.79 in1008.8 mb 0.00 in0.0 mm 0.00 in0.0 mm 0.00 in0.0 mm
12:13 AM 64.8°F18.2°C 63.6°F17.6°C 96% 1.6 mph S2.6 kmh S 2.2 mph3.5 kmh 29.79 in1008.8 mb 0.00 in0.0 mm 0.00 in0.0 mm 0.00 in0.0 mm
12:12 AM 64.6°F18.1°C 63.4°F17.4°C 96% 1.3 mph SE2.1 kmh SE 2.2 mph3.5 kmh 29.79 in1008.8 mb 0.00 in0.0 mm 0.00 in0.0 mm 0.00 in0.0 mm
12:11 AM 64.6°F18.1°C 63.4°F17.4°C 96% 0.7 mph SE1.1 kmh SE 1.1 mph1.8 kmh 29.79 in1008.8 mb 0.00 in0.0 mm 0.00 in0.0 mm 0.00 in0.0 mm
12:10 AM 64.6°F18.1°C 63.4°F17.4°C 96% 1.3 mph S2.1 kmh S 2.2 mph3.5 kmh 29.79 in1008.8 mb 0.00 in0.0 mm 0.00 in0.0 mm 0.00 in0.0 mm
12:09 AM 64.6°F18.1°C 63.4°F17.4°C 96% 1.1 mph S1.8 kmh S 1.1 mph1.8 kmh 29.80 in1009.1 mb 0.00 in0.0 mm 0.00 in0.0 mm 0.00 in0.0 mm
12:08 AM 64.4°F18.0°C 63.2°F17.3°C 96% 1.8 mph WSW2.9 kmh WSW 2.2 mph3.5 kmh 29.80 in1009.1 mb 0.00 in0.0 mm 0.00 in0.0 mm 0.00 in0.0 mm
12:07 AM 64.2°F17.9°C 63.0°F17.2°C 96% 2.0 mph NW3.2 kmh NW 2.2 mph3.5 kmh 29.79 in1008.8 mb 0.00 in0.0 mm 0.00 in0.0 mm 0.00 in0.0 mm
12:06 AM 64.0°F17.8°C 62.8°F17.1°C 96% 1.1 mph SE1.8 kmh SE 1.1 mph1.8 kmh 29.80 in1009.1 mb 0.00 in0.0 mm 0.00 in0.0 mm 0.00 in0.0 mm
12:05 AM 64.0°F17.8°C 62.8°F17.1°C 96% 1.1 mph SE1.8 kmh SE 1.1 mph1.8 kmh 29.80 in1009.1 mb 0.00 in0.0 mm 0.00 in0.0 mm 0.00 in0.0 mm
12:04 AM 64.0°F17.8°C 62.8°F17.1°C 96% 1.1 mph ESE1.8 kmh ESE 1.1 mph1.8 kmh 29.80 in1009.1 mb 0.00 in0.0 mm 0.00 in0.0 mm 0.00 in0.0 mm
12:03 AM 64.0°F17.8°C 62.8°F17.1°C 96% 2.2 mph WSW3.5 kmh WSW 2.2 mph3.5 kmh 29.80 in1009.1 mb 0.00 in0.0 mm 0.00 in0.0 mm 0.00 in0.0 mm
12:02 AM 63.9°F17.7°C 62.7°F17.1°C 96% 1.3 mph SSE2.1 kmh SSE 2.2 mph3.5 kmh 29.80 in1009.1 mb 0.00 in0.0 mm 0.00 in0.0 mm 0.00 in0.0 mm
12:01 AM 63.9°F17.7°C 62.7°F17.1°C 96% 0.7 mph SE1.1 kmh SE 1.1 mph1.8 kmh 29.79 in1008.8 mb 0.00 in0.0 mm 0.00 in0.0 mm 0.00 in0.0 mm
12:00 AM 63.9°F17.7°C 62.7°F17.1°C 96% 1.1 mph SSE1.8 kmh SSE 1.1 mph1.8 kmh 29.80 in1009.1 mb 0.00 in0.0 mm 0.00 in0.0 mm 0.00 in0.0 mm